TimeCDT,TemperatureF,Dew PointF,Humidity,Sea Level PressureIn,VisibilityMPH,Wind Direction,Wind SpeedMPH,Gust SpeedMPH,PrecipitationIn,Events,Conditions,WindDirDegrees,DateUTC
12:15 AM,67.6,56.5,67,30.09,10.0,ESE,5.8,-,N/A,,Clear,110,2013-06-20 05:15:00
12:35 AM,67.3,56.3,68,30.10,10.0,Calm,Calm,-,N/A,,Clear,0,2013-06-20 05:35:00
12:55 AM,66.4,56.3,70,30.10,10.0,Calm,Calm,-,N/A,,Clear,0,2013-06-20 05:55:00
1:15 AM,67.6,55.4,65,30.10,10.0,Calm,Calm,-,N/A,,Clear,0,2013-06-20 06:15:00
1:35 AM,66.9,55.6,67,30.10,10.0,Calm,Calm,-,N/A,,Clear,0,2013-06-20 06:35:00
1:55 AM,65.7,55.8,70,30.10,10.0,SSE,4.6,-,N/A,,Clear,150,2013-06-20 06:55:00
2:15 AM,64.6,55.8,73,30.11,10.0,South,4.6,-,N/A,,Clear,170,2013-06-20 07:15:00
2:35 AM,64.6,54.9,71,30.11,10.0,Calm,Calm,-,N/A,,Clear,0,2013-06-20 07:35:00
2:55 AM,62.4,54.5,75,30.11,10.0,Calm,Calm,-,N/A,,Clear,0,2013-06-20 07:55:00
3:15 AM,62.6,54.3,74,30.11,10.0,Calm,Calm,-,N/A,,Clear,0,2013-06-20 08:15:00
3:35 AM,63.5,55.4,75,30.10,10.0,Calm,Calm,-,N/A,,Clear,0,2013-06-20 08:35:00
3:55 AM,61.0,55.0,81,30.10,10.0,Calm,Calm,-,N/A,,Clear,0,2013-06-20 08:55:00
4:15 AM,61.9,55.4,79,30.11,10.0,Calm,Calm,-,N/A,,Scattered Clouds,0,2013-06-20 09:15:00
4:35 AM,61.2,54.9,80,30.11,10.0,Calm,Calm,-,N/A,,Scattered Clouds,0,2013-06-20 09:35:00
4:55 AM,60.4,55.0,82,30.11,10.0,Calm,Calm,-,N/A,,Clear,0,2013-06-20 09:55:00
5:15 AM,59.4,55.8,88,30.11,10.0,Calm,Calm,-,N/A,,Clear,0,2013-06-20 10:15:00
5:35 AM,59.5,56.3,89,30.11,10.0,Calm,Calm,-,N/A,,Clear,0,2013-06-20 10:35:00
5:55 AM,59.0,55.4,88,30.11,10.0,NE,3.5,-,N/A,,Clear,40,2013-06-20 10:55:00
6:15 AM,59.4,56.1,89,30.12,10.0,NE,3.5,-,N/A,,Clear,40,2013-06-20 11:15:00
6:35 AM,61.7,57.2,85,30.12,10.0,NE,3.5,-,N/A,,Clear,50,2013-06-20 11:35:00
6:55 AM,64.2,56.7,76,30.12,10.0,Calm,Calm,-,N/A,,Clear,0,2013-06-20 11:55:00
7:15 AM,66.7,57.2,71,30.13,10.0,Calm,Calm,-,N/A,,Clear,0,2013-06-20 12:15:00
7:35 AM,69.1,57.7,67,30.12,10.0,SE,3.5,-,N/A,,Clear,130,2013-06-20 12:35:00
7:55 AM,70.9,57.7,63,30.12,10.0,SSE,4.6,-,N/A,,Clear,150,2013-06-20 12:55:00
8:15 AM,71.8,57.9,62,30.12,10.0,SSE,5.8,-,N/A,,Clear,150,2013-06-20 13:15:00
8:35 AM,73.0,58.5,60,30.13,10.0,SSE,4.6,-,N/A,,Clear,150,2013-06-20 13:35:00
8:55 AM,74.5,59.0,58,30.13,10.0,SSE,5.8,-,N/A,,Clear,160,2013-06-20 13:55:00
9:15 AM,75.9,59.9,57,30.13,10.0,SE,3.5,-,N/A,,Clear,130,2013-06-20 14:15:00
9:35 AM,77.0,59.5,55,30.13,10.0,SE,4.6,-,N/A,,Clear,140,2013-06-20 14:35:00
9:55 AM,78.4,60.1,53,30.12,10.0,SE,4.6,-,N/A,,Clear,130,2013-06-20 14:55:00
10:15 AM,79.7,59.9,51,30.12,10.0,SE,3.5,-,N/A,,Clear,140,2013-06-20 15:15:00
10:35 AM,80.6,62.6,54,30.12,10.0,WSW,4.6,-,N/A,,Clear,240,2013-06-20 15:35:00
10:55 AM,80.2,62.2,54,30.12,10.0,WSW,5.8,-,N/A,,Clear,250,2013-06-20 15:55:00
11:15 AM,81.9,62.4,52,30.12,10.0,Calm,Calm,-,N/A,,Clear,0,2013-06-20 16:15:00
11:35 AM,82.6,60.4,47,30.12,10.0,WSW,6.9,-,N/A,,Clear,250,2013-06-20 16:35:00
11:55 AM,84.4,58.6,42,30.12,10.0,SSW,5.8,-,N/A,,Clear,210,2013-06-20 16:55:00
12:15 PM,84.9,59.5,42,30.11,10.0,SSW,6.9,-,N/A,,Clear,210,2013-06-20 17:15:00
12:35 PM,84.7,58.5,41,30.11,10.0,SW,5.8,-,N/A,,Clear,230,2013-06-20 17:35:00
12:55 PM,86.0,57.6,38,30.10,10.0,WSW,4.6,-,N/A,,Clear,240,2013-06-20 17:55:00
1:15 PM,86.4,58.3,38,30.09,10.0,South,5.8,-,N/A,,Clear,170,2013-06-20 18:15:00
1:35 PM,86.7,59.2,39,30.09,10.0,West,4.6,-,N/A,,Clear,260,2013-06-20 18:35:00
1:55 PM,88.3,57.9,36,30.08,10.0,South,6.9,-,N/A,,Clear,180,2013-06-20 18:55:00
2:15 PM,89.6,55.4,31,30.08,10.0,SE,9.2,-,N/A,,Clear,130,2013-06-20 19:15:00
2:35 PM,90.0,55.4,31,30.07,10.0,South,10.4,17.3,N/A,,Clear,170,2013-06-20 19:35:00
2:55 PM,89.6,56.5,32,30.07,10.0,SSE,9.2,-,N/A,,Scattered Clouds,150,2013-06-20 19:55:00
3:15 PM,89.4,54.5,30,30.07,10.0,SE,11.5,-,N/A,,Scattered Clouds,140,2013-06-20 20:15:00
3:35 PM,90.5,55.2,30,30.06,10.0,South,9.2,-,N/A,,Clear,170,2013-06-20 20:35:00
3:55 PM,90.7,55.6,30,30.05,10.0,SSE,11.5,16.1,N/A,,Scattered Clouds,160,2013-06-20 20:55:00
4:15 PM,90.5,56.5,32,30.05,10.0,SSE,11.5,-,N/A,,Clear,150,2013-06-20 21:15:00
4:35 PM,90.3,54.7,30,30.05,10.0,SSE,10.4,-,N/A,,Scattered Clouds,150,2013-06-20 21:35:00
4:55 PM,90.7,55.0,30,30.04,10.0,South,11.5,17.3,N/A,,Scattered Clouds,170,2013-06-20 21:55:00
5:15 PM,90.0,54.5,30,30.04,10.0,SSE,13.8,17.3,N/A,,Scattered Clouds,160,2013-06-20 22:15:00
5:35 PM,89.6,54.9,31,30.03,10.0,SSE,15.0,18.4,N/A,,Clear,150,2013-06-20 22:35:00
5:55 PM,88.7,55.8,33,30.03,10.0,SE,12.7,-,N/A,,Clear,130,2013-06-20 22:55:00
6:15 PM,88.2,56.7,34,30.02,10.0,SSE,11.5,-,N/A,,Clear,150,2013-06-20 23:15:00
6:35 PM,87.6,55.8,34,30.02,10.0,SSE,11.5,-,N/A,,Clear,160,2013-06-20 23:35:00
6:55 PM,86.5,57.6,37,30.02,10.0,SSE,10.4,-,N/A,,Clear,160,2013-06-20 23:55:00
7:15 PM,85.5,59.4,41,30.02,10.0,SSE,6.9,-,N/A,,Clear,150,2013-06-21 00:15:00
7:35 PM,83.1,62.4,49,30.02,10.0,SE,6.9,-,N/A,,Clear,140,2013-06-21 00:35:00
7:55 PM,80.4,63.0,55,30.02,10.0,SSE,6.9,-,N/A,,Clear,150,2013-06-21 00:55:00
8:15 PM,79.0,62.4,57,30.01,10.0,SSE,5.8,-,N/A,,Clear,150,2013-06-21 01:15:00
8:35 PM,76.5,63.1,63,30.02,10.0,SSE,5.8,-,N/A,,Clear,150,2013-06-21 01:35:00
8:55 PM,76.5,63.0,63,30.02,10.0,SSE,5.8,-,N/A,,Clear,150,2013-06-21 01:55:00
9:15 PM,74.3,63.5,69,30.03,10.0,SSE,5.8,-,N/A,,Clear,150,2013-06-21 02:15:00
9:35 PM,73.9,63.0,68,30.04,10.0,SSE,5.8,-,N/A,,Clear,150,2013-06-21 02:35:00
9:55 PM,74.5,62.1,65,30.04,10.0,SSE,5.8,-,N/A,,Clear,150,2013-06-21 02:55:00
10:15 PM,73.6,62.1,67,30.04,10.0,SSE,4.6,-,N/A,,Clear,160,2013-06-21 03:15:00
10:35 PM,73.6,61.7,66,30.04,10.0,SSE,3.5,-,N/A,,Clear,150,2013-06-21 03:35:00
10:55 PM,72.7,61.7,68,30.04,10.0,SE,5.8,-,N/A,,Clear,140,2013-06-21 03:55:00
11:15 PM,72.9,61.9,68,30.05,10.0,SE,6.9,-,N/A,,Clear,140,2013-06-21 04:15:00
11:35 PM,73.4,61.7,67,30.05,10.0,SE,8.1,-,N/A,,Clear,140,2013-06-21 04:35:00
11:55 PM,72.7,61.7,68,30.05,10.0,South,4.6,-,N/A,,Clear,170,2013-06-21 04:55:00